sensor_id;sensor_type;location;lat;lon;timestamp;temperature;humidity
25046;DHT22;13044;49.304;12.840;2023-04-24T00:02:23;11.80;99.90
25046;DHT22;13044;49.304;12.840;2023-04-24T00:04:51;11.60;99.90
25046;DHT22;13044;49.304;12.840;2023-04-24T00:07:18;11.60;99.90
25046;DHT22;13044;49.304;12.840;2023-04-24T00:09:46;11.60;99.90
25046;DHT22;13044;49.304;12.840;2023-04-24T00:12:14;11.50;99.90
25046;DHT22;13044;49.304;12.840;2023-04-24T00:14:41;11.40;99.90
25046;DHT22;13044;49.304;12.840;2023-04-24T00:17:07;11.40;99.90
25046;DHT22;13044;49.304;12.840;2023-04-24T00:19:34;11.30;99.90
25046;DHT22;13044;49.304;12.840;2023-04-24T00:22:02;11.30;99.90
25046;DHT22;13044;49.304;12.840;2023-04-24T00:24:30;11.20;99.90
25046;DHT22;13044;49.304;12.840;2023-04-24T00:26:57;11.20;99.90
25046;DHT22;13044;49.304;12.840;2023-04-24T00:29:24;11.30;99.90
25046;DHT22;13044;49.304;12.840;2023-04-24T00:31:51;11.30;99.90
25046;DHT22;13044;49.304;12.840;2023-04-24T00:34:18;11.30;99.90
25046;DHT22;13044;49.304;12.840;2023-04-24T00:36:45;11.30;99.90
25046;DHT22;13044;49.304;12.840;2023-04-24T00:39:12;11.30;99.90
25046;DHT22;13044;49.304;12.840;2023-04-24T00:41:39;11.20;99.90
25046;DHT22;13044;49.304;12.840;2023-04-24T00:44:06;11.10;99.90
25046;DHT22;13044;49.304;12.840;2023-04-24T00:46:33;11.10;99.90
25046;DHT22;13044;49.304;12.840;2023-04-24T00:49:01;11.10;99.90
25046;DHT22;13044;49.304;12.840;2023-04-24T00:51:29;11.10;99.90
25046;DHT22;13044;49.304;12.840;2023-04-24T00:53:57;11.10;99.90
25046;DHT22;13044;49.304;12.840;2023-04-24T00:56:24;11.20;99.90
25046;DHT22;13044;49.304;12.840;2023-04-24T00:58:51;11.20;99.90
25046;DHT22;13044;49.304;12.840;2023-04-24T01:01:20;11.10;99.90
25046;DHT22;13044;49.304;12.840;2023-04-24T01:03:49;11.20;99.90
25046;DHT22;13044;49.304;12.840;2023-04-24T01:06:18;11.30;99.90
25046;DHT22;13044;49.304;12.840;2023-04-24T01:08:47;11.30;99.90
25046;DHT22;13044;49.304;12.840;2023-04-24T01:11:14;11.30;99.90
25046;DHT22;13044;49.304;12.840;2023-04-24T01:13:41;11.40;99.90
25046;DHT22;13044;49.304;12.840;2023-04-24T01:16:08;11.50;99.90
25046;DHT22;13044;49.304;12.840;2023-04-24T01:18:35;11.50;99.90
25046;DHT22;13044;49.304;12.840;2023-04-24T01:21:04;11.50;99.90
25046;DHT22;13044;49.304;12.840;2023-04-24T01:23:31;11.60;99.90
25046;DHT22;13044;49.304;12.840;2023-04-24T01:25:58;11.60;99.90
25046;DHT22;13044;49.304;12.840;2023-04-24T01:28:25;11.60;99.90
25046;DHT22;13044;49.304;12.840;2023-04-24T01:30:52;11.50;99.90
25046;DHT22;13044;49.304;12.840;2023-04-24T01:33:21;11.50;99.90
25046;DHT22;13044;49.304;12.840;2023-04-24T01:35:49;11.50;99.90
25046;DHT22;13044;49.304;12.840;2023-04-24T01:38:16;11.50;99.90
25046;DHT22;13044;49.304;12.840;2023-04-24T01:40:43;11.50;99.90
25046;DHT22;13044;49.304;12.840;2023-04-24T01:43:10;11.50;99.90
25046;DHT22;13044;49.304;12.840;2023-04-24T01:45:38;11.40;99.90
25046;DHT22;13044;49.304;12.840;2023-04-24T01:48:05;11.50;99.90
25046;DHT22;13044;49.304;12.840;2023-04-24T01:50:33;11.50;99.90
25046;DHT22;13044;49.304;12.840;2023-04-24T01:53:00;11.50;99.90
25046;DHT22;13044;49.304;12.840;2023-04-24T01:55:27;11.60;99.90
25046;DHT22;13044;49.304;12.840;2023-04-24T01:57:55;11.50;99.90
25046;DHT22;13044;49.304;12.840;2023-04-24T02:00:23;11.60;99.90
25046;DHT22;13044;49.304;12.840;2023-04-24T02:02:51;11.50;99.90
25046;DHT22;13044;49.304;12.840;2023-04-24T02:05:18;11.40;99.90
25046;DHT22;13044;49.304;12.840;2023-04-24T02:07:45;11.40;99.90
25046;DHT22;13044;49.304;12.840;2023-04-24T02:10:12;11.30;99.90
25046;DHT22;13044;49.304;12.840;2023-04-24T02:12:39;11.30;99.90
25046;DHT22;13044;49.304;12.840;2023-04-24T02:15:06;11.20;99.90
25046;DHT22;13044;49.304;12.840;2023-04-24T02:17:33;11.00;99.90
25046;DHT22;13044;49.304;12.840;2023-04-24T02:20:00;11.10;99.90
25046;DHT22;13044;49.304;12.840;2023-04-24T02:22:27;11.10;99.90
25046;DHT22;13044;49.304;12.840;2023-04-24T02:24:54;11.20;99.90
25046;DHT22;13044;49.304;12.840;2023-04-24T02:27:21;11.20;99.90
25046;DHT22;13044;49.304;12.840;2023-04-24T02:29:47;11.10;99.90
25046;DHT22;13044;49.304;12.840;2023-04-24T02:32:15;11.00;99.90
25046;DHT22;13044;49.304;12.840;2023-04-24T02:34:42;11.00;99.90
25046;DHT22;13044;49.304;12.840;2023-04-24T02:37:09;10.90;99.90
25046;DHT22;13044;49.304;12.840;2023-04-24T02:39:36;10.90;99.90
25046;DHT22;13044;49.304;12.840;2023-04-24T02:42:03;10.80;99.90
25046;DHT22;13044;49.304;12.840;2023-04-24T02:44:30;10.90;99.90
25046;DHT22;13044;49.304;12.840;2023-04-24T02:46:57;10.90;99.90
25046;DHT22;13044;49.304;12.840;2023-04-24T02:49:24;10.90;99.90
25046;DHT22;13044;49.304;12.840;2023-04-24T02:51:51;10.90;99.90
25046;DHT22;13044;49.304;12.840;2023-04-24T02:54:18;10.90;99.90
25046;DHT22;13044;49.304;12.840;2023-04-24T02:56:45;10.90;99.90
25046;DHT22;13044;49.304;12.840;2023-04-24T02:59:12;11.10;99.90
25046;DHT22;13044;49.304;12.840;2023-04-24T03:01:39;11.20;99.90
25046;DHT22;13044;49.304;12.840;2023-04-24T03:04:06;11.20;99.90
25046;DHT22;13044;49.304;12.840;2023-04-24T03:06:33;11.10;99.90
25046;DHT22;13044;49.304;12.840;2023-04-24T03:09:02;11.00;99.90
25046;DHT22;13044;49.304;12.840;2023-04-24T03:11:30;11.10;99.90
25046;DHT22;13044;49.304;12.840;2023-04-24T03:13:57;11.10;99.90
25046;DHT22;13044;49.304;12.840;2023-04-24T03:16:24;11.10;99.90
25046;DHT22;13044;49.304;12.840;2023-04-24T03:18:50;11.20;99.90
25046;DHT22;13044;49.304;12.840;2023-04-24T03:21:17;11.10;99.90
25046;DHT22;13044;49.304;12.840;2023-04-24T03:23:44;11.10;99.90
25046;DHT22;13044;49.304;12.840;2023-04-24T03:26:12;11.10;99.90
25046;DHT22;13044;49.304;12.840;2023-04-24T03:28:38;11.20;99.90
25046;DHT22;13044;49.304;12.840;2023-04-24T03:31:05;11.20;99.90
25046;DHT22;13044;49.304;12.840;2023-04-24T03:33:33;11.10;99.90
25046;DHT22;13044;49.304;12.840;2023-04-24T03:36:00;11.00;99.90
25046;DHT22;13044;49.304;12.840;2023-04-24T03:38:27;11.00;99.90
25046;DHT22;13044;49.304;12.840;2023-04-24T03:40:53;10.90;99.90
25046;DHT22;13044;49.304;12.840;2023-04-24T03:43:20;10.90;99.90
25046;DHT22;13044;49.304;12.840;2023-04-24T03:45:47;10.90;99.90
25046;DHT22;13044;49.304;12.840;2023-04-24T03:48:14;10.90;99.90
25046;DHT22;13044;49.304;12.840;2023-04-24T03:50:41;10.90;99.90
25046;DHT22;13044;49.304;12.840;2023-04-24T03:53:08;10.90;99.90
25046;DHT22;13044;49.304;12.840;2023-04-24T03:55:35;10.90;99.90
25046;DHT22;13044;49.304;12.840;2023-04-24T03:58:01;10.90;99.90
25046;DHT22;13044;49.304;12.840;2023-04-24T04:00:28;10.90;99.90
25046;DHT22;13044;49.304;12.840;2023-04-24T04:02:58;10.90;99.90
25046;DHT22;13044;49.304;12.840;2023-04-24T04:05:25;10.90;99.90
25046;DHT22;13044;49.304;12.840;2023-04-24T04:07:51;10.90;99.90
25046;DHT22;13044;49.304;12.840;2023-04-24T04:10:18;10.90;99.90
25046;DHT22;13044;49.304;12.840;2023-04-24T04:12:45;10.90;99.90
25046;DHT22;13044;49.304;12.840;2023-04-24T04:15:12;10.90;99.90
25046;DHT22;13044;49.304;12.840;2023-04-24T04:17:39;10.90;99.90
25046;DHT22;13044;49.304;12.840;2023-04-24T04:20:06;10.90;99.90
25046;DHT22;13044;49.304;12.840;2023-04-24T04:22:36;10.90;99.90
25046;DHT22;13044;49.304;12.840;2023-04-24T04:25:04;10.90;99.90
25046;DHT22;13044;49.304;12.840;2023-04-24T04:27:31;10.80;99.90
25046;DHT22;13044;49.304;12.840;2023-04-24T04:29:58;10.90;99.90
25046;DHT22;13044;49.304;12.840;2023-04-24T04:32:31;10.80;99.90
25046;DHT22;13044;49.304;12.840;2023-04-24T04:35:00;10.80;99.90
25046;DHT22;13044;49.304;12.840;2023-04-24T04:37:33;10.80;99.90
25046;DHT22;13044;49.304;12.840;2023-04-24T04:40:01;10.80;99.90
25046;DHT22;13044;49.304;12.840;2023-04-24T04:42:38;10.80;99.90
25046;DHT22;13044;49.304;12.840;2023-04-24T04:45:08;10.70;99.90
25046;DHT22;13044;49.304;12.840;2023-04-24T04:47:38;10.80;99.90
25046;DHT22;13044;49.304;12.840;2023-04-24T04:50:06;10.80;99.90
25046;DHT22;13044;49.304;12.840;2023-04-24T04:52:34;10.80;99.90
25046;DHT22;13044;49.304;12.840;2023-04-24T04:55:01;11.00;99.90
25046;DHT22;13044;49.304;12.840;2023-04-24T04:57:28;11.10;99.90
25046;DHT22;13044;49.304;12.840;2023-04-24T04:59:56;11.20;99.90
25046;DHT22;13044;49.304;12.840;2023-04-24T05:02:23;11.30;99.90
25046;DHT22;13044;49.304;12.840;2023-04-24T05:04:50;11.30;99.90
25046;DHT22;13044;49.304;12.840;2023-04-24T05:07:17;11.30;99.90
25046;DHT22;13044;49.304;12.840;2023-04-24T05:09:45;11.30;99.90
25046;DHT22;13044;49.304;12.840;2023-04-24T05:12:11;11.30;99.90
25046;DHT22;13044;49.304;12.840;2023-04-24T05:14:39;11.20;99.90
25046;DHT22;13044;49.304;12.840;2023-04-24T05:17:07;11.10;99.90
25046;DHT22;13044;49.304;12.840;2023-04-24T05:19:34;11.10;99.90
25046;DHT22;13044;49.304;12.840;2023-04-24T05:22:04;11.00;99.90
25046;DHT22;13044;49.304;12.840;2023-04-24T05:24:34;10.90;99.90
25046;DHT22;13044;49.304;12.840;2023-04-24T05:27:02;10.90;99.90
25046;DHT22;13044;49.304;12.840;2023-04-24T05:29:31;11.00;99.90
25046;DHT22;13044;49.304;12.840;2023-04-24T05:32:00;11.00;99.90
25046;DHT22;13044;49.304;12.840;2023-04-24T05:34:28;11.10;99.90
25046;DHT22;13044;49.304;12.840;2023-04-24T05:36:54;11.10;99.90
25046;DHT22;13044;49.304;12.840;2023-04-24T05:39:22;11.10;99.90
25046;DHT22;13044;49.304;12.840;2023-04-24T05:41:51;11.20;99.90
25046;DHT22;13044;49.304;12.840;2023-04-24T05:44:19;11.10;99.90
25046;DHT22;13044;49.304;12.840;2023-04-24T05:46:46;11.10;99.90
25046;DHT22;13044;49.304;12.840;2023-04-24T05:49:13;11.20;99.90
25046;DHT22;13044;49.304;12.840;2023-04-24T05:51:41;11.20;99.90
25046;DHT22;13044;49.304;12.840;2023-04-24T05:54:08;11.20;99.90
25046;DHT22;13044;49.304;12.840;2023-04-24T05:56:37;11.20;99.90
25046;DHT22;13044;49.304;12.840;2023-04-24T05:59:07;11.30;99.90
25046;DHT22;13044;49.304;12.840;2023-04-24T06:01:35;11.30;99.90
25046;DHT22;13044;49.304;12.840;2023-04-24T06:04:06;11.30;99.90
25046;DHT22;13044;49.304;12.840;2023-04-24T06:06:35;11.30;99.90
25046;DHT22;13044;49.304;12.840;2023-04-24T06:09:02;11.40;99.90
25046;DHT22;13044;49.304;12.840;2023-04-24T06:11:30;11.30;99.90
25046;DHT22;13044;49.304;12.840;2023-04-24T06:13:57;11.30;99.90
25046;DHT22;13044;49.304;12.840;2023-04-24T06:16:24;11.40;99.90
25046;DHT22;13044;49.304;12.840;2023-04-24T06:18:51;11.40;99.90
25046;DHT22;13044;49.304;12.840;2023-04-24T06:21:18;11.40;99.90
25046;DHT22;13044;49.304;12.840;2023-04-24T06:23:45;11.30;99.90
25046;DHT22;13044;49.304;12.840;2023-04-24T06:26:13;11.30;99.90
25046;DHT22;13044;49.304;12.840;2023-04-24T06:28:40;11.40;99.90
25046;DHT22;13044;49.304;12.840;2023-04-24T06:31:07;11.40;99.90
25046;DHT22;13044;49.304;12.840;2023-04-24T06:33:34;11.30;99.90
25046;DHT22;13044;49.304;12.840;2023-04-24T06:36:02;11.40;99.90
25046;DHT22;13044;49.304;12.840;2023-04-24T06:38:30;11.50;99.90
25046;DHT22;13044;49.304;12.840;2023-04-24T06:40:58;11.60;99.90
25046;DHT22;13044;49.304;12.840;2023-04-24T06:43:25;11.50;99.90
25046;DHT22;13044;49.304;12.840;2023-04-24T06:45:52;11.40;99.90
25046;DHT22;13044;49.304;12.840;2023-04-24T06:48:19;11.40;99.90
25046;DHT22;13044;49.304;12.840;2023-04-24T06:50:46;11.40;99.90
25046;DHT22;13044;49.304;12.840;2023-04-24T06:53:13;11.40;99.90
25046;DHT22;13044;49.304;12.840;2023-04-24T06:55:43;11.30;99.90
25046;DHT22;13044;49.304;12.840;2023-04-24T06:58:11;11.20;99.90
25046;DHT22;13044;49.304;12.840;2023-04-24T07:00:39;11.20;99.90
25046;DHT22;13044;49.304;12.840;2023-04-24T07:03:06;11.20;99.90
25046;DHT22;13044;49.304;12.840;2023-04-24T07:05:33;11.20;99.90
25046;DHT22;13044;49.304;12.840;2023-04-24T07:08:01;11.20;99.90
25046;DHT22;13044;49.304;12.840;2023-04-24T07:10:30;11.30;99.90
25046;DHT22;13044;49.304;12.840;2023-04-24T07:12:57;11.40;99.90
25046;DHT22;13044;49.304;12.840;2023-04-24T07:15:24;11.50;99.90
25046;DHT22;13044;49.304;12.840;2023-04-24T07:17:51;11.50;99.90
25046;DHT22;13044;49.304;12.840;2023-04-24T07:20:18;11.60;99.90
25046;DHT22;13044;49.304;12.840;2023-04-24T07:22:45;11.70;99.90
25046;DHT22;13044;49.304;12.840;2023-04-24T07:25:14;11.70;99.90
25046;DHT22;13044;49.304;12.840;2023-04-24T07:27:42;11.70;99.90
25046;DHT22;13044;49.304;12.840;2023-04-24T07:30:10;11.90;99.90
25046;DHT22;13044;49.304;12.840;2023-04-24T07:32:38;11.90;99.90
25046;DHT22;13044;49.304;12.840;2023-04-24T07:35:06;12.00;99.90
25046;DHT22;13044;49.304;12.840;2023-04-24T07:37:33;12.10;99.90
25046;DHT22;13044;49.304;12.840;2023-04-24T07:40:01;12.10;99.90
25046;DHT22;13044;49.304;12.840;2023-04-24T07:42:29;12.20;99.90
25046;DHT22;13044;49.304;12.840;2023-04-24T07:45:01;12.20;99.90
25046;DHT22;13044;49.304;12.840;2023-04-24T07:47:30;12.30;99.90
25046;DHT22;13044;49.304;12.840;2023-04-24T07:49:57;12.30;99.90
25046;DHT22;13044;49.304;12.840;2023-04-24T07:52:24;12.40;99.90
25046;DHT22;13044;49.304;12.840;2023-04-24T07:54:51;12.50;99.90
25046;DHT22;13044;49.304;12.840;2023-04-24T07:57:24;12.50;99.90
25046;DHT22;13044;49.304;12.840;2023-04-24T07:59:54;12.50;99.90
25046;DHT22;13044;49.304;12.840;2023-04-24T08:02:22;12.40;99.90
25046;DHT22;13044;49.304;12.840;2023-04-24T08:04:53;12.40;99.90
25046;DHT22;13044;49.304;12.840;2023-04-24T08:07:25;12.40;99.90
25046;DHT22;13044;49.304;12.840;2023-04-24T08:09:52;12.30;99.90
25046;DHT22;13044;49.304;12.840;2023-04-24T08:12:19;12.30;99.90
25046;DHT22;13044;49.304;12.840;2023-04-24T08:14:46;12.40;99.90
25046;DHT22;13044;49.304;12.840;2023-04-24T08:17:13;12.40;99.90
25046;DHT22;13044;49.304;12.840;2023-04-24T08:19:40;12.50;99.90
25046;DHT22;13044;49.304;12.840;2023-04-24T08:22:15;12.50;99.90
25046;DHT22;13044;49.304;12.840;2023-04-24T08:24:42;12.50;99.90
25046;DHT22;13044;49.304;12.840;2023-04-24T08:27:11;12.60;99.90
25046;DHT22;13044;49.304;12.840;2023-04-24T08:29:38;12.60;99.90
25046;DHT22;13044;49.304;12.840;2023-04-24T08:32:05;12.70;99.90
25046;DHT22;13044;49.304;12.840;2023-04-24T08:34:32;12.80;99.90
25046;DHT22;13044;49.304;12.840;2023-04-24T08:36:59;12.80;99.90
25046;DHT22;13044;49.304;12.840;2023-04-24T08:39:26;12.90;99.90
25046;DHT22;13044;49.304;12.840;2023-04-24T08:41:53;13.10;99.90
25046;DHT22;13044;49.304;12.840;2023-04-24T08:44:21;13.00;99.90
25046;DHT22;13044;49.304;12.840;2023-04-24T08:46:48;13.00;99.90
25046;DHT22;13044;49.304;12.840;2023-04-24T08:49:16;13.10;99.90
25046;DHT22;13044;49.304;12.840;2023-04-24T08:51:44;13.00;99.90
25046;DHT22;13044;49.304;12.840;2023-04-24T08:54:13;12.90;99.90
25046;DHT22;13044;49.304;12.840;2023-04-24T08:56:44;12.90;99.90
25046;DHT22;13044;49.304;12.840;2023-04-24T08:59:11;13.00;99.90
25046;DHT22;13044;49.304;12.840;2023-04-24T09:01:40;12.90;99.90
25046;DHT22;13044;49.304;12.840;2023-04-24T09:04:09;13.00;99.90
25046;DHT22;13044;49.304;12.840;2023-04-24T09:06:38;13.20;99.90
25046;DHT22;13044;49.304;12.840;2023-04-24T09:09:05;13.30;99.90
25046;DHT22;13044;49.304;12.840;2023-04-24T09:11:32;13.60;99.90
25046;DHT22;13044;49.304;12.840;2023-04-24T09:13:59;13.80;99.90
25046;DHT22;13044;49.304;12.840;2023-04-24T09:16:27;14.00;99.90
25046;DHT22;13044;49.304;12.840;2023-04-24T09:18:55;14.30;99.90
25046;DHT22;13044;49.304;12.840;2023-04-24T09:21:22;14.50;99.90
25046;DHT22;13044;49.304;12.840;2023-04-24T09:24:00;14.60;99.90
25046;DHT22;13044;49.304;12.840;2023-04-24T09:26:31;14.50;99.90
25046;DHT22;13044;49.304;12.840;2023-04-24T09:28:59;14.30;99.90
25046;DHT22;13044;49.304;12.840;2023-04-24T09:31:28;13.90;99.90
25046;DHT22;13044;49.304;12.840;2023-04-24T09:34:03;13.60;99.90
25046;DHT22;13044;49.304;12.840;2023-04-24T09:36:34;13.00;99.90
25046;DHT22;13044;49.304;12.840;2023-04-24T09:39:12;12.60;99.90
25046;DHT22;13044;49.304;12.840;2023-04-24T09:44:26;12.10;99.90
25046;DHT22;13044;49.304;12.840;2023-04-24T09:46:58;12.10;99.90
25046;DHT22;13044;49.304;12.840;2023-04-24T09:49:28;11.90;99.90
25046;DHT22;13044;49.304;12.840;2023-04-24T09:52:10;11.60;99.90
25046;DHT22;13044;49.304;12.840;2023-04-24T09:54:39;11.50;99.90
25046;DHT22;13044;49.304;12.840;2023-04-24T09:57:08;11.40;99.90
25046;DHT22;13044;49.304;12.840;2023-04-24T09:59:42;11.20;99.90
25046;DHT22;13044;49.304;12.840;2023-04-24T10:02:20;11.30;99.90
25046;DHT22;13044;49.304;12.840;2023-04-24T10:04:57;11.30;99.90
25046;DHT22;13044;49.304;12.840;2023-04-24T10:07:26;11.40;99.90
25046;DHT22;13044;49.304;12.840;2023-04-24T10:09:54;11.30;99.90
25046;DHT22;13044;49.304;12.840;2023-04-24T10:12:21;11.10;99.90
25046;DHT22;13044;49.304;12.840;2023-04-24T10:14:49;11.10;99.90
25046;DHT22;13044;49.304;12.840;2023-04-24T10:17:17;11.10;99.90
25046;DHT22;13044;49.304;12.840;2023-04-24T10:19:45;11.20;99.90
25046;DHT22;13044;49.304;12.840;2023-04-24T10:22:14;11.10;99.90
25046;DHT22;13044;49.304;12.840;2023-04-24T10:24:44;11.30;99.90
25046;DHT22;13044;49.304;12.840;2023-04-24T10:27:12;11.60;99.90
25046;DHT22;13044;49.304;12.840;2023-04-24T10:29:43;11.80;99.90
25046;DHT22;13044;49.304;12.840;2023-04-24T10:32:11;12.00;99.90
25046;DHT22;13044;49.304;12.840;2023-04-24T10:34:38;12.40;99.90
25046;DHT22;13044;49.304;12.840;2023-04-24T10:37:05;12.70;99.90
25046;DHT22;13044;49.304;12.840;2023-04-24T10:39:32;12.80;99.90
25046;DHT22;13044;49.304;12.840;2023-04-24T10:42:00;12.90;99.90
25046;DHT22;13044;49.304;12.840;2023-04-24T10:44:36;12.90;99.90
25046;DHT22;13044;49.304;12.840;2023-04-24T10:47:03;13.10;99.90
25046;DHT22;13044;49.304;12.840;2023-04-24T10:49:31;13.30;99.90
25046;DHT22;13044;49.304;12.840;2023-04-24T10:52:03;13.60;99.90
25046;DHT22;13044;49.304;12.840;2023-04-24T10:54:42;13.60;99.90
25046;DHT22;13044;49.304;12.840;2023-04-24T10:59:47;13.80;99.90
25046;DHT22;13044;49.304;12.840;2023-04-24T11:02:15;13.90;99.90
25046;DHT22;13044;49.304;12.840;2023-04-24T11:04:43;13.90;99.90
25046;DHT22;13044;49.304;12.840;2023-04-24T11:07:12;13.80;99.90
25046;DHT22;13044;49.304;12.840;2023-04-24T11:09:39;13.80;99.90
25046;DHT22;13044;49.304;12.840;2023-04-24T11:12:11;13.50;99.90
25046;DHT22;13044;49.304;12.840;2023-04-24T11:15:10;13.40;99.90
25046;DHT22;13044;49.304;12.840;2023-04-24T11:17:38;13.50;99.90
25046;DHT22;13044;49.304;12.840;2023-04-24T11:20:10;13.30;99.90
25046;DHT22;13044;49.304;12.840;2023-04-24T11:22:54;13.60;99.90
25046;DHT22;13044;49.304;12.840;2023-04-24T11:25:22;13.60;99.90
25046;DHT22;13044;49.304;12.840;2023-04-24T11:27:50;13.50;99.90
25046;DHT22;13044;49.304;12.840;2023-04-24T11:30:29;13.60;99.90
25046;DHT22;13044;49.304;12.840;2023-04-24T11:33:03;13.70;99.90
25046;DHT22;13044;49.304;12.840;2023-04-24T11:35:35;13.40;99.90
25046;DHT22;13044;49.304;12.840;2023-04-24T11:38:04;13.40;99.90
25046;DHT22;13044;49.304;12.840;2023-04-24T11:40:34;13.50;99.90
25046;DHT22;13044;49.304;12.840;2023-04-24T11:43:04;13.70;99.90
25046;DHT22;13044;49.304;12.840;2023-04-24T11:45:33;13.80;99.90
25046;DHT22;13044;49.304;12.840;2023-04-24T11:48:00;14.10;99.90
25046;DHT22;13044;49.304;12.840;2023-04-24T11:50:29;14.40;99.90
25046;DHT22;13044;49.304;12.840;2023-04-24T11:52:56;14.50;99.90
25046;DHT22;13044;49.304;12.840;2023-04-24T11:55:26;14.70;99.90
25046;DHT22;13044;49.304;12.840;2023-04-24T11:57:58;14.70;99.90
25046;DHT22;13044;49.304;12.840;2023-04-24T12:00:31;14.70;99.90
25046;DHT22;13044;49.304;12.840;2023-04-24T12:03:08;14.70;99.90
25046;DHT22;13044;49.304;12.840;2023-04-24T12:05:37;14.70;99.90
25046;DHT22;13044;49.304;12.840;2023-04-24T12:08:05;14.80;99.90
25046;DHT22;13044;49.304;12.840;2023-04-24T12:10:33;14.90;99.90
25046;DHT22;13044;49.304;12.840;2023-04-24T12:13:01;14.90;99.90
25046;DHT22;13044;49.304;12.840;2023-04-24T12:15:28;15.00;99.90
25046;DHT22;13044;49.304;12.840;2023-04-24T12:17:56;15.20;99.90
25046;DHT22;13044;49.304;12.840;2023-04-24T12:20:32;15.10;99.90
25046;DHT22;13044;49.304;12.840;2023-04-24T12:23:00;14.90;99.90
25046;DHT22;13044;49.304;12.840;2023-04-24T12:25:31;15.00;99.90
25046;DHT22;13044;49.304;12.840;2023-04-24T12:30:43;14.70;99.90
25046;DHT22;13044;49.304;12.840;2023-04-24T12:33:11;14.40;99.90
25046;DHT22;13044;49.304;12.840;2023-04-24T12:35:40;14.40;99.90
25046;DHT22;13044;49.304;12.840;2023-04-24T12:38:09;14.20;99.90
25046;DHT22;13044;49.304;12.840;2023-04-24T12:40:36;14.10;99.90
25046;DHT22;13044;49.304;12.840;2023-04-24T12:43:13;13.90;99.90
25046;DHT22;13044;49.304;12.840;2023-04-24T12:45:41;13.80;99.90
25046;DHT22;13044;49.304;12.840;2023-04-24T12:48:08;13.90;99.90
25046;DHT22;13044;49.304;12.840;2023-04-24T12:50:35;13.80;99.90
25046;DHT22;13044;49.304;12.840;2023-04-24T12:53:02;13.70;99.90
25046;DHT22;13044;49.304;12.840;2023-04-24T12:55:29;13.70;99.90
25046;DHT22;13044;49.304;12.840;2023-04-24T12:57:56;13.70;99.90
25046;DHT22;13044;49.304;12.840;2023-04-24T13:00:23;13.60;99.90
25046;DHT22;13044;49.304;12.840;2023-04-24T13:02:53;13.50;99.90
25046;DHT22;13044;49.304;12.840;2023-04-24T13:05:20;13.60;99.90
25046;DHT22;13044;49.304;12.840;2023-04-24T13:07:50;13.50;99.90
25046;DHT22;13044;49.304;12.840;2023-04-24T13:10:17;13.60;99.90
25046;DHT22;13044;49.304;12.840;2023-04-24T13:12:44;13.70;99.90
25046;DHT22;13044;49.304;12.840;2023-04-24T13:15:12;13.90;99.90
25046;DHT22;13044;49.304;12.840;2023-04-24T13:17:39;13.90;99.90
25046;DHT22;13044;49.304;12.840;2023-04-24T13:20:07;14.20;99.90
25046;DHT22;13044;49.304;12.840;2023-04-24T13:22:34;14.40;99.90
25046;DHT22;13044;49.304;12.840;2023-04-24T13:25:01;14.50;99.90
25046;DHT22;13044;49.304;12.840;2023-04-24T13:27:27;14.50;99.90
25046;DHT22;13044;49.304;12.840;2023-04-24T13:29:54;14.60;99.90
25046;DHT22;13044;49.304;12.840;2023-04-24T13:32:21;14.70;99.90
25046;DHT22;13044;49.304;12.840;2023-04-24T13:34:48;15.00;99.30
25046;DHT22;13044;49.304;12.840;2023-04-24T13:37:15;15.10;99.90
25046;DHT22;13044;49.304;12.840;2023-04-24T13:39:42;15.00;99.90
25046;DHT22;13044;49.304;12.840;2023-04-24T13:42:09;14.90;99.90
25046;DHT22;13044;49.304;12.840;2023-04-24T13:44:36;14.80;99.10
25046;DHT22;13044;49.304;12.840;2023-04-24T13:47:02;14.80;97.80
25046;DHT22;13044;49.304;12.840;2023-04-24T13:49:29;14.90;97.10
25046;DHT22;13044;49.304;12.840;2023-04-24T13:51:56;14.50;97.30
25046;DHT22;13044;49.304;12.840;2023-04-24T13:54:23;14.00;98.00
25046;DHT22;13044;49.304;12.840;2023-04-24T13:56:52;13.90;97.70
25046;DHT22;13044;49.304;12.840;2023-04-24T13:59:20;13.90;96.70
25046;DHT22;13044;49.304;12.840;2023-04-24T14:01:48;14.00;95.50
25046;DHT22;13044;49.304;12.840;2023-04-24T14:04:15;13.80;94.00
25046;DHT22;13044;49.304;12.840;2023-04-24T14:06:43;13.90;96.10
25046;DHT22;13044;49.304;12.840;2023-04-24T14:09:10;14.00;95.00
25046;DHT22;13044;49.304;12.840;2023-04-24T14:11:37;14.10;94.40
25046;DHT22;13044;49.304;12.840;2023-04-24T14:14:04;14.30;94.60
25046;DHT22;13044;49.304;12.840;2023-04-24T14:16:32;14.40;94.10
25046;DHT22;13044;49.304;12.840;2023-04-24T14:18:59;14.50;92.80
25046;DHT22;13044;49.304;12.840;2023-04-24T14:21:26;14.40;92.30
25046;DHT22;13044;49.304;12.840;2023-04-24T14:23:52;14.20;93.30
25046;DHT22;13044;49.304;12.840;2023-04-24T14:26:19;14.40;92.30
25046;DHT22;13044;49.304;12.840;2023-04-24T14:28:46;14.50;91.00
25046;DHT22;13044;49.304;12.840;2023-04-24T14:31:13;14.60;90.30
25046;DHT22;13044;49.304;12.840;2023-04-24T14:33:40;14.60;90.20
25046;DHT22;13044;49.304;12.840;2023-04-24T14:36:07;14.60;91.40
25046;DHT22;13044;49.304;12.840;2023-04-24T14:38:34;14.60;90.70
25046;DHT22;13044;49.304;12.840;2023-04-24T14:41:01;14.50;89.40
25046;DHT22;13044;49.304;12.840;2023-04-24T14:43:38;14.40;85.20
25046;DHT22;13044;49.304;12.840;2023-04-24T14:46:05;14.10;81.50
25046;DHT22;13044;49.304;12.840;2023-04-24T14:48:32;14.00;83.20
25046;DHT22;13044;49.304;12.840;2023-04-24T14:50:59;14.00;84.30
25046;DHT22;13044;49.304;12.840;2023-04-24T14:53:26;14.10;83.30
25046;DHT22;13044;49.304;12.840;2023-04-24T14:55:53;14.00;84.80
25046;DHT22;13044;49.304;12.840;2023-04-24T14:58:20;13.90;85.80
25046;DHT22;13044;49.304;12.840;2023-04-24T15:00:47;14.00;85.60
25046;DHT22;13044;49.304;12.840;2023-04-24T15:03:19;14.00;85.60
25046;DHT22;13044;49.304;12.840;2023-04-24T15:05:48;14.00;85.40
25046;DHT22;13044;49.304;12.840;2023-04-24T15:08:15;13.90;85.80
25046;DHT22;13044;49.304;12.840;2023-04-24T15:10:42;13.80;87.30
25046;DHT22;13044;49.304;12.840;2023-04-24T15:13:09;13.80;86.90
25046;DHT22;13044;49.304;12.840;2023-04-24T15:15:36;13.50;88.80
25046;DHT22;13044;49.304;12.840;2023-04-24T15:18:04;13.50;89.50
25046;DHT22;13044;49.304;12.840;2023-04-24T15:20:32;13.60;87.70
25046;DHT22;13044;49.304;12.840;2023-04-24T15:22:58;13.70;90.30
25046;DHT22;13044;49.304;12.840;2023-04-24T15:25:28;13.80;89.70
25046;DHT22;13044;49.304;12.840;2023-04-24T15:27:55;13.80;90.80
25046;DHT22;13044;49.304;12.840;2023-04-24T15:30:22;13.60;90.90